createdAt,value
2023-07-23T00:02:20.670Z,20.00
2023-07-23T00:04:48.845Z,20.00
2023-07-23T00:07:16.948Z,20.00
2023-07-23T00:09:45.088Z,20.00
2023-07-23T00:12:13.191Z,19.90
2023-07-23T00:14:42.645Z,19.90
2023-07-23T00:17:10.776Z,19.90
2023-07-23T00:19:38.902Z,19.90
2023-07-23T00:22:07.074Z,19.80
2023-07-23T00:24:35.367Z,19.80
2023-07-23T00:27:03.570Z,19.80
2023-07-23T00:29:31.717Z,19.80
2023-07-23T00:32:01.149Z,19.80
2023-07-23T00:34:30.152Z,19.80
2023-07-23T00:36:58.507Z,19.70
2023-07-23T00:39:26.850Z,19.70
2023-07-23T00:41:55.090Z,19.70
2023-07-23T00:44:23.204Z,19.70
2023-07-23T00:46:51.993Z,19.70
2023-07-23T00:49:22.509Z,19.70
2023-07-23T00:51:51.041Z,19.70
2023-07-23T00:54:19.623Z,19.70
2023-07-23T00:56:49.754Z,19.60
2023-07-23T00:59:19.434Z,19.60
2023-07-23T01:01:49.493Z,19.60
2023-07-23T01:04:18.427Z,19.60
2023-07-23T01:06:48.256Z,19.60
2023-07-23T01:09:18.773Z,19.60
2023-07-23T01:11:47.347Z,19.60
2023-07-23T01:14:15.460Z,19.60
2023-07-23T01:16:45.780Z,19.70
2023-07-23T01:19:14.771Z,19.60
2023-07-23T01:21:42.992Z,19.60
2023-07-23T01:24:12.838Z,19.60
2023-07-23T01:26:41.221Z,19.60
2023-07-23T01:29:11.137Z,19.60
2023-07-23T01:31:39.416Z,19.60
2023-07-23T01:34:07.754Z,19.70
2023-07-23T01:36:35.872Z,19.60
2023-07-23T01:39:04.207Z,19.70
2023-07-23T01:41:33.991Z,19.70
2023-07-23T01:44:03.090Z,19.70
2023-07-23T01:46:31.275Z,19.70
2023-07-23T01:48:59.438Z,19.70
2023-07-23T01:51:27.819Z,19.70
2023-07-23T01:53:56.252Z,19.70
2023-07-23T01:56:24.870Z,19.70
2023-07-23T01:58:54.384Z,19.70
2023-07-23T02:01:23.223Z,19.70
2023-07-23T02:03:51.556Z,19.70
2023-07-23T02:06:19.807Z,19.70
2023-07-23T02:08:47.910Z,19.70
2023-07-23T02:11:16.113Z,19.70
2023-07-23T02:13:45.572Z,19.70
2023-07-23T02:16:19.493Z,19.70
2023-07-23T02:18:47.780Z,19.80
2023-07-23T02:21:16.142Z,19.80
2023-07-23T02:23:45.890Z,19.80
2023-07-23T02:26:14.109Z,19.70
2023-07-23T02:28:44.694Z,19.70
2023-07-23T02:31:13.647Z,19.70
2023-07-23T02:33:43.287Z,19.70
2023-07-23T02:36:12.079Z,19.70
2023-07-23T02:38:40.527Z,19.70
2023-07-23T02:41:09.285Z,19.80
2023-07-23T02:43:37.573Z,19.70
2023-07-23T02:46:05.781Z,19.80
2023-07-23T02:48:34.130Z,19.80
2023-07-23T02:51:03.586Z,19.80
2023-07-23T02:53:31.811Z,19.80
2023-07-23T02:55:59.925Z,19.80
2023-07-23T02:58:28.143Z,19.80
2023-07-23T03:00:57.592Z,19.80
2023-07-23T03:03:26.581Z,19.80
2023-07-23T03:05:54.835Z,19.80
2023-07-23T03:08:24.378Z,19.80
2023-07-23T03:10:53.009Z,19.80
2023-07-23T03:13:21.319Z,19.80
2023-07-23T03:15:49.459Z,19.80
2023-07-23T03:18:17.639Z,19.90
2023-07-23T03:20:45.962Z,19.80
2023-07-23T03:23:14.132Z,19.80
2023-07-23T03:25:43.834Z,19.90
2023-07-23T03:28:11.961Z,19.90
2023-07-23T03:30:40.262Z,19.80
2023-07-23T03:33:08.454Z,19.90
2023-07-23T03:35:36.574Z,19.90
2023-07-23T03:38:04.732Z,19.90
2023-07-23T03:40:32.890Z,19.90
2023-07-23T03:43:02.348Z,19.90
2023-07-23T03:45:30.533Z,19.90
2023-07-23T03:47:59.008Z,19.90
2023-07-23T03:50:27.296Z,20.00
2023-07-23T03:52:55.642Z,19.90
2023-07-23T03:55:23.785Z,19.90
2023-07-23T03:57:51.916Z,19.90
2023-07-23T04:00:21.589Z,20.00
2023-07-23T04:02:49.760Z,19.90
2023-07-23T04:05:18.222Z,20.00
2023-07-23T04:07:46.343Z,20.00
2023-07-23T04:10:14.685Z,20.00
2023-07-23T04:12:42.826Z,20.00
2023-07-23T04:15:11.617Z,20.10
2023-07-23T04:17:41.117Z,20.10
2023-07-23T04:20:10.814Z,20.00
2023-07-23T04:22:39.030Z,20.10
2023-07-23T04:25:08.991Z,20.10
2023-07-23T04:27:37.121Z,20.10
2023-07-23T04:30:06.159Z,20.10
2023-07-23T04:32:34.370Z,20.20
2023-07-23T04:35:04.010Z,20.20
2023-07-23T04:37:32.178Z,20.20
2023-07-23T04:40:00.622Z,20.20
2023-07-23T04:42:28.750Z,20.30
2023-07-23T04:44:57.000Z,20.30
2023-07-23T04:47:25.126Z,20.30
2023-07-23T04:49:53.355Z,20.30
2023-07-23T04:52:22.811Z,20.40
2023-07-23T04:54:51.744Z,20.40
2023-07-23T04:57:20.066Z,20.40
2023-07-23T04:59:48.211Z,20.40
2023-07-23T05:02:16.320Z,20.50
2023-07-23T05:04:44.458Z,20.50
2023-07-23T05:07:12.583Z,20.50
2023-07-23T05:09:44.068Z,20.50
2023-07-23T05:12:12.261Z,20.60
2023-07-23T05:14:40.427Z,20.60
2023-07-23T05:17:08.632Z,20.60
2023-07-23T05:19:36.792Z,20.60
2023-07-23T05:22:05.588Z,20.60
2023-07-23T05:24:34.036Z,20.70
2023-07-23T05:27:03.536Z,20.70
2023-07-23T05:29:31.676Z,20.70
2023-07-23T05:31:59.788Z,20.70
2023-07-23T05:34:27.913Z,20.80
2023-07-23T05:36:56.052Z,20.80
2023-07-23T05:39:24.182Z,20.90
2023-07-23T05:41:52.790Z,20.90
2023-07-23T05:44:22.255Z,21.00
2023-07-23T05:46:50.397Z,21.00
2023-07-23T05:49:18.580Z,21.10
2023-07-23T05:51:47.152Z,21.10
2023-07-23T05:54:15.291Z,21.20
2023-07-23T05:56:43.423Z,21.20
2023-07-23T05:59:11.605Z,21.20
2023-07-23T06:01:41.081Z,21.30
2023-07-23T06:04:09.559Z,21.30
2023-07-23T06:06:37.721Z,21.30
2023-07-23T06:09:05.872Z,21.40
2023-07-23T06:11:37.106Z,21.40
2023-07-23T06:14:07.441Z,21.40
2023-07-23T06:16:35.611Z,21.40
2023-07-23T06:19:05.154Z,21.40
2023-07-23T06:21:33.371Z,21.40
2023-07-23T06:24:01.502Z,21.40
2023-07-23T06:26:30.481Z,21.50
2023-07-23T06:28:58.602Z,21.50
2023-07-23T06:31:27.151Z,21.50
2023-07-23T06:33:55.553Z,21.50
2023-07-23T06:36:25.337Z,21.60
2023-07-23T06:38:53.447Z,21.60
2023-07-23T06:41:21.586Z,21.70
2023-07-23T06:43:49.702Z,21.80
2023-07-23T06:46:21.356Z,21.90
2023-07-23T06:48:50.127Z,22.00
2023-07-23T06:51:18.272Z,22.10
2023-07-23T06:53:47.790Z,22.20
2023-07-23T06:56:17.540Z,22.30
2023-07-23T06:58:45.700Z,22.40
2023-07-23T07:01:13.939Z,22.50
2023-07-23T07:03:42.062Z,22.60
2023-07-23T07:06:10.223Z,22.70
2023-07-23T07:08:38.390Z,22.70
2023-07-23T07:11:11.228Z,22.80
2023-07-23T07:13:40.089Z,22.90
2023-07-23T07:16:08.282Z,23.00
2023-07-23T07:18:36.448Z,23.10
2023-07-23T07:21:04.716Z,23.10
2023-07-23T07:23:33.824Z,23.20
2023-07-23T07:26:02.511Z,23.30
2023-07-23T07:28:34.624Z,23.40
2023-07-23T07:31:04.343Z,23.50
2023-07-23T07:33:32.757Z,23.60
2023-07-23T07:36:02.915Z,23.70
2023-07-23T07:38:31.296Z,23.90
2023-07-23T07:40:59.559Z,24.00
2023-07-23T07:43:27.928Z,24.10
2023-07-23T07:46:01.506Z,24.30
2023-07-23T07:48:31.368Z,24.50
2023-07-23T07:51:01.561Z,24.70
2023-07-23T07:53:29.928Z,24.90
2023-07-23T07:55:58.499Z,25.00
2023-07-23T07:58:27.098Z,25.20
2023-07-23T08:00:58.052Z,25.40
2023-07-23T08:03:29.457Z,25.40
2023-07-23T08:05:59.365Z,25.60
2023-07-23T08:08:30.599Z,25.80
2023-07-23T08:11:05.896Z,25.90
2023-07-23T08:13:37.567Z,26.00
2023-07-23T08:16:08.952Z,26.10
2023-07-23T08:18:38.065Z,26.20
2023-07-23T08:21:07.201Z,26.30
2023-07-23T08:23:37.409Z,26.50
2023-07-23T08:26:07.972Z,26.60
2023-07-23T08:28:41.081Z,26.80
2023-07-23T08:31:11.275Z,26.90
2023-07-23T08:33:44.183Z,26.90
2023-07-23T08:36:13.029Z,27.00
2023-07-23T08:38:42.031Z,27.10
2023-07-23T08:41:24.955Z,27.20
2023-07-23T08:44:37.858Z,27.30
2023-07-23T08:47:13.105Z,27.40
2023-07-23T08:49:43.361Z,27.50
2023-07-23T08:52:13.859Z,27.60
2023-07-23T08:54:42.947Z,27.60
2023-07-23T08:57:11.781Z,27.70
2023-07-23T08:59:41.740Z,27.80
2023-07-23T09:02:13.355Z,27.90
2023-07-23T09:04:41.641Z,27.90
2023-07-23T09:07:13.209Z,28.20
2023-07-23T09:09:41.414Z,28.10
2023-07-23T09:12:10.519Z,28.20
2023-07-23T09:14:44.165Z,28.20
2023-07-23T09:17:21.010Z,28.30
2023-07-23T09:19:50.048Z,28.30
2023-07-23T09:22:19.313Z,28.40
2023-07-23T09:24:47.536Z,28.40
2023-07-23T09:27:17.183Z,28.50
2023-07-23T09:29:45.376Z,28.50
2023-07-23T09:32:28.086Z,28.60
2023-07-23T09:34:57.035Z,28.60
2023-07-23T09:37:25.482Z,28.70
2023-07-23T09:39:57.479Z,28.70
2023-07-23T09:42:26.406Z,28.70
2023-07-23T09:44:54.895Z,28.70
2023-07-23T09:47:27.200Z,28.80
2023-07-23T09:49:55.769Z,28.80
2023-07-23T09:52:25.577Z,28.90
2023-07-23T09:54:54.455Z,28.90
2023-07-23T09:57:23.787Z,29.10
2023-07-23T09:59:52.691Z,29.10
2023-07-23T10:02:23.971Z,29.10
2023-07-23T10:04:54.237Z,29.30
2023-07-23T10:07:23.665Z,29.20
2023-07-23T10:09:52.835Z,29.30
2023-07-23T10:12:23.213Z,29.40
2023-07-23T10:14:52.426Z,29.50
2023-07-23T10:17:21.676Z,29.50
2023-07-23T10:19:50.761Z,29.70
2023-07-23T10:22:20.652Z,29.80
2023-07-23T10:24:53.721Z,29.70
2023-07-23T10:27:22.280Z,29.80
2023-07-23T10:30:18.646Z,29.90
2023-07-23T10:32:48.945Z,29.90
2023-07-23T10:36:00.718Z,30.00
2023-07-23T10:38:32.686Z,30.10
2023-07-23T10:41:01.967Z,30.20
2023-07-23T10:43:44.936Z,30.30
2023-07-23T10:46:15.129Z,30.30
2023-07-23T10:48:47.999Z,30.40
2023-07-23T10:51:19.201Z,30.40
2023-07-23T10:54:03.287Z,30.50
2023-07-23T10:56:35.372Z,30.50
2023-07-23T10:59:07.309Z,30.60
2023-07-23T11:01:37.992Z,30.60
2023-07-23T11:04:11.566Z,30.70
2023-07-23T11:06:42.577Z,30.90
2023-07-23T11:09:13.088Z,31.00
2023-07-23T11:11:43.323Z,31.10
2023-07-23T11:14:22.326Z,31.30
2023-07-23T11:16:52.684Z,31.30
2023-07-23T11:19:22.939Z,31.40
2023-07-23T11:21:53.226Z,31.50
2023-07-23T11:24:23.378Z,31.60
2023-07-23T11:26:52.422Z,31.70
2023-07-23T11:29:21.004Z,31.60
2023-07-23T11:31:49.972Z,31.50
2023-07-23T11:34:18.964Z,31.50
2023-07-23T11:36:53.224Z,31.50
2023-07-23T11:39:25.162Z,31.50
2023-07-23T11:41:54.774Z,31.40
2023-07-23T11:44:24.021Z,31.40
2023-07-23T11:47:01.184Z,31.40
2023-07-23T11:49:29.434Z,31.40
2023-07-23T11:51:59.781Z,31.30
2023-07-23T11:54:29.250Z,31.40
2023-07-23T11:56:57.446Z,31.40
2023-07-23T11:59:25.540Z,31.40
2023-07-23T12:01:57.434Z,31.40
2023-07-23T12:04:25.626Z,31.40
2023-07-23T12:06:54.368Z,31.30
2023-07-23T12:09:22.530Z,31.50
2023-07-23T12:11:52.727Z,31.40
2023-07-23T12:14:20.924Z,31.40
2023-07-23T12:16:50.847Z,31.40
2023-07-23T12:19:20.485Z,31.40
2023-07-23T12:21:50.348Z,31.40
2023-07-23T12:24:21.831Z,31.50
2023-07-23T12:26:54.408Z,31.60
2023-07-23T12:29:24.068Z,31.40
2023-07-23T12:32:10.545Z,31.40
2023-07-23T12:34:40.332Z,31.40
2023-07-23T12:37:09.453Z,31.40
2023-07-23T12:39:37.712Z,31.40
2023-07-23T12:42:08.352Z,31.40
2023-07-23T12:44:36.781Z,31.40
2023-07-23T12:47:05.003Z,31.40
2023-07-23T12:49:33.147Z,31.40
2023-07-23T12:52:02.072Z,31.40
2023-07-23T12:54:31.086Z,31.50
2023-07-23T12:56:59.499Z,31.60
2023-07-23T12:59:29.053Z,31.60
2023-07-23T13:01:57.202Z,31.60
2023-07-23T13:04:25.419Z,31.60
2023-07-23T13:06:53.560Z,31.60
2023-07-23T13:09:21.684Z,31.70
2023-07-23T13:11:49.833Z,31.70
2023-07-23T13:14:18.174Z,31.70
2023-07-23T13:16:47.687Z,31.70
2023-07-23T13:19:15.848Z,31.80
2023-07-23T13:21:43.963Z,31.80
2023-07-23T13:24:12.921Z,31.90
2023-07-23T13:26:42.029Z,32.00
2023-07-23T13:29:10.347Z,31.90
2023-07-23T13:31:38.487Z,32.10
2023-07-23T13:34:07.930Z,32.10
2023-07-23T13:36:36.665Z,32.10
2023-07-23T13:39:05.029Z,32.10
2023-07-23T13:41:33.184Z,32.10
2023-07-23T13:44:02.779Z,32.00
2023-07-23T13:46:31.557Z,32.00
2023-07-23T13:48:59.927Z,31.90
2023-07-23T13:51:29.384Z,31.80
2023-07-23T13:53:57.510Z,31.70
2023-07-23T13:56:25.679Z,31.70
2023-07-23T13:58:53.804Z,31.70
2023-07-23T14:01:22.040Z,31.60
2023-07-23T14:03:50.222Z,31.60
2023-07-23T14:06:20.668Z,31.50
2023-07-23T14:08:50.241Z,31.70
2023-07-23T14:11:18.440Z,31.50
2023-07-23T14:13:46.660Z,31.50
2023-07-23T14:16:14.813Z,31.40
2023-07-23T14:18:42.994Z,31.40
2023-07-23T14:21:11.469Z,31.40
2023-07-23T14:23:39.619Z,31.30
2023-07-23T14:26:09.082Z,31.20
2023-07-23T14:28:37.981Z,31.10
2023-07-23T14:31:06.683Z,31.10
2023-07-23T14:33:34.842Z,31.00
2023-07-23T14:36:04.111Z,30.90
2023-07-23T14:38:32.454Z,30.90
2023-07-23T14:41:01.459Z,30.90
2023-07-23T14:43:31.938Z,30.90
2023-07-23T14:46:00.193Z,30.80
2023-07-23T14:48:28.646Z,30.80
2023-07-23T14:50:56.802Z,30.70
2023-07-23T14:53:24.963Z,30.70
2023-07-23T14:55:53.111Z,30.70
2023-07-23T14:58:22.296Z,30.70
2023-07-23T15:00:51.783Z,30.70
2023-07-23T15:03:20.695Z,30.60
2023-07-23T15:05:48.944Z,30.60
2023-07-23T15:08:17.171Z,30.50
2023-07-23T15:10:45.310Z,30.50
2023-07-23T15:13:14.188Z,30.40
2023-07-23T15:15:43.158Z,30.30
2023-07-23T15:18:13.455Z,30.30
2023-07-23T15:20:42.315Z,30.30
2023-07-23T15:23:11.325Z,30.30
2023-07-23T15:25:40.240Z,30.30
2023-07-23T15:28:09.403Z,30.30
2023-07-23T15:30:37.638Z,30.30
2023-07-23T15:33:05.812Z,30.30
2023-07-23T15:35:35.266Z,30.40
2023-07-23T15:38:03.394Z,30.20
2023-07-23T15:40:31.563Z,30.20
2023-07-23T15:42:59.683Z,30.20
2023-07-23T15:45:27.953Z,30.40
2023-07-23T15:47:56.095Z,30.20
2023-07-23T15:50:24.230Z,30.20
2023-07-23T15:52:53.702Z,30.20
2023-07-23T15:55:21.979Z,30.30
2023-07-23T15:57:50.137Z,30.20
2023-07-23T16:00:18.567Z,30.20
2023-07-23T16:02:46.766Z,30.20
2023-07-23T16:05:15.134Z,30.20
2023-07-23T16:07:43.260Z,30.20
2023-07-23T16:10:13.013Z,30.30
2023-07-23T16:12:41.288Z,30.10
2023-07-23T16:15:10.731Z,30.10
2023-07-23T16:17:39.008Z,30.00
2023-07-23T16:20:09.093Z,30.00
2023-07-23T16:22:37.414Z,30.00
2023-07-23T16:25:06.624Z,30.00
2023-07-23T16:27:36.212Z,30.00
2023-07-23T16:30:04.694Z,30.00
2023-07-23T16:32:37.813Z,30.00
2023-07-23T16:35:07.930Z,30.00
2023-07-23T16:37:41.671Z,29.90
2023-07-23T16:40:13.398Z,29.90
2023-07-23T16:42:49.622Z,29.90
2023-07-23T16:45:19.017Z,29.80
2023-07-23T16:47:47.353Z,29.80
2023-07-23T16:50:15.541Z,29.80
2023-07-23T16:52:43.781Z,29.80
2023-07-23T16:55:12.863Z,29.80
2023-07-23T16:57:43.687Z,29.70
2023-07-23T17:00:13.113Z,29.80
2023-07-23T17:02:41.290Z,29.80
2023-07-23T17:05:10.650Z,29.80
2023-07-23T17:07:38.791Z,29.80
2023-07-23T17:10:07.924Z,29.80
2023-07-23T17:12:36.223Z,29.80
2023-07-23T17:15:07.261Z,29.80
2023-07-23T17:17:35.428Z,29.80
2023-07-23T17:20:03.667Z,29.80
2023-07-23T17:22:31.759Z,29.80
2023-07-23T17:25:00.017Z,29.80
2023-07-23T17:27:28.179Z,29.80
2023-07-23T17:29:56.288Z,29.80
2023-07-23T17:32:26.376Z,29.80
2023-07-23T17:34:54.801Z,29.80
2023-07-23T17:37:22.938Z,29.80
2023-07-23T17:39:51.050Z,29.80
2023-07-23T17:42:19.201Z,29.80
2023-07-23T17:44:47.317Z,29.80
2023-07-23T17:47:15.442Z,29.70
2023-07-23T17:49:44.904Z,29.70
2023-07-23T17:52:13.015Z,29.70
2023-07-23T17:54:41.349Z,29.60
2023-07-23T17:57:09.459Z,29.60
2023-07-23T17:59:37.593Z,29.60
2023-07-23T18:02:06.605Z,29.50
2023-07-23T18:04:34.782Z,29.50
2023-07-23T18:07:04.351Z,29.50
2023-07-23T18:09:32.921Z,29.40
2023-07-23T18:12:01.033Z,29.40
2023-07-23T18:14:29.478Z,29.40
2023-07-23T18:16:57.617Z,29.30
2023-07-23T18:19:25.826Z,29.30
2023-07-23T18:21:55.149Z,29.30
2023-07-23T18:24:25.807Z,29.20
2023-07-23T18:26:54.034Z,29.20
2023-07-23T18:29:22.218Z,29.20
2023-07-23T18:31:50.904Z,29.10
2023-07-23T18:34:19.016Z,29.10
2023-07-23T18:36:47.117Z,29.10
2023-07-23T18:39:15.264Z,29.00
2023-07-23T18:41:44.757Z,28.90
2023-07-23T18:44:13.102Z,28.90
2023-07-23T18:46:41.532Z,28.80
2023-07-23T18:49:09.786Z,28.80
2023-07-23T18:51:39.434Z,28.80
2023-07-23T18:54:07.595Z,28.70
2023-07-23T18:56:35.750Z,28.70
2023-07-23T18:59:05.228Z,28.60
2023-07-23T19:01:33.394Z,28.60
2023-07-23T19:04:01.568Z,28.50
2023-07-23T19:06:29.968Z,28.50
2023-07-23T19:08:58.466Z,28.40
2023-07-23T19:11:26.653Z,28.40
2023-07-23T19:13:54.779Z,28.30
2023-07-23T19:16:24.278Z,28.30
2023-07-23T19:18:52.679Z,28.20
2023-07-23T19:21:20.795Z,28.10
2023-07-23T19:23:49.276Z,28.10
2023-07-23T19:26:17.411Z,28.10
2023-07-23T19:28:45.533Z,28.10
2023-07-23T19:31:14.609Z,28.00
2023-07-23T19:33:44.137Z,28.00
2023-07-23T19:36:12.670Z,28.00
2023-07-23T19:38:40.947Z,27.90
2023-07-23T19:41:09.226Z,27.90
2023-07-23T19:43:37.346Z,28.00
2023-07-23T19:46:05.578Z,27.90
2023-07-23T19:48:33.695Z,27.80
2023-07-23T19:51:03.228Z,27.80
2023-07-23T19:53:31.383Z,27.80
2023-07-23T19:55:59.503Z,27.80
2023-07-23T19:58:27.618Z,27.70
2023-07-23T20:00:55.793Z,27.70
2023-07-23T20:03:24.063Z,27.70
2023-07-23T20:05:55.005Z,27.70
2023-07-23T20:08:25.271Z,27.80
2023-07-23T20:10:53.379Z,27.60
2023-07-23T20:13:21.497Z,27.60
2023-07-23T20:15:50.690Z,27.60
2023-07-23T20:18:18.824Z,27.50
2023-07-23T20:20:50.296Z,27.40
2023-07-23T20:23:18.658Z,27.40
2023-07-23T20:25:53.231Z,27.40
2023-07-23T20:28:23.327Z,27.30
2023-07-23T20:30:52.901Z,27.30
2023-07-23T20:33:21.806Z,27.30
2023-07-23T20:35:51.078Z,27.20
2023-07-23T20:38:20.030Z,27.20
2023-07-23T20:40:49.336Z,27.20
2023-07-23T20:43:19.221Z,27.10
2023-07-23T20:45:47.358Z,27.10
2023-07-23T20:48:15.505Z,27.00
2023-07-23T20:50:45.629Z,27.00
2023-07-23T20:53:13.867Z,27.00
2023-07-23T20:55:42.087Z,26.90
2023-07-23T20:58:10.444Z,26.80
2023-07-23T21:00:39.956Z,26.80
2023-07-23T21:03:08.195Z,26.80
2023-07-23T21:05:36.650Z,26.70
2023-07-23T21:08:04.928Z,26.70
2023-07-23T21:10:35.016Z,26.60
2023-07-23T21:13:03.223Z,26.60
2023-07-23T21:15:33.239Z,26.50
2023-07-23T21:18:03.075Z,26.50
2023-07-23T21:20:32.242Z,26.40
2023-07-23T21:23:00.466Z,26.40
2023-07-23T21:25:28.637Z,26.30
2023-07-23T21:27:56.803Z,26.30
2023-07-23T21:30:27.056Z,26.20
2023-07-23T21:32:55.602Z,26.20
2023-07-23T21:35:25.208Z,26.10
2023-07-23T21:37:53.535Z,26.10
2023-07-23T21:40:22.096Z,26.00
2023-07-23T21:42:50.725Z,26.00
2023-07-23T21:45:19.693Z,25.90
2023-07-23T21:47:49.962Z,25.90
2023-07-23T21:50:18.536Z,25.80
2023-07-23T21:52:48.807Z,25.80
2023-07-23T21:55:17.852Z,25.70
2023-07-23T21:57:46.475Z,25.70
2023-07-23T22:00:15.746Z,25.60
2023-07-23T22:02:44.409Z,25.60
2023-07-23T22:05:13.061Z,25.60
2023-07-23T22:07:41.342Z,25.60
2023-07-23T22:10:12.143Z,25.60
2023-07-23T22:12:40.562Z,25.50
2023-07-23T22:15:10.453Z,25.50
2023-07-23T22:17:37.958Z,25.40
2023-07-23T22:20:07.999Z,25.40
2023-07-23T22:22:36.317Z,25.40
2023-07-23T22:25:04.813Z,25.40
2023-07-23T22:27:34.423Z,25.40
2023-07-23T22:30:12.017Z,25.30
2023-07-23T22:32:43.512Z,25.30
2023-07-23T22:35:11.701Z,25.30
2023-07-23T22:37:39.820Z,25.30
2023-07-23T22:40:10.221Z,25.30
2023-07-23T22:42:42.435Z,25.20
2023-07-23T22:45:14.200Z,25.30
2023-07-23T22:47:42.599Z,25.20
2023-07-23T22:50:11.572Z,25.10
2023-07-23T22:52:40.001Z,25.20
2023-07-23T22:55:09.378Z,25.10
2023-07-23T22:57:39.672Z,25.10
2023-07-23T23:00:11.284Z,25.10
2023-07-23T23:02:39.834Z,25.00
2023-07-23T23:05:09.068Z,25.00
2023-07-23T23:07:37.189Z,24.90
2023-07-23T23:10:06.084Z,25.00
2023-07-23T23:12:34.316Z,25.00
2023-07-23T23:15:05.088Z,24.90
2023-07-23T23:17:33.562Z,24.90
2023-07-23T23:20:01.737Z,24.90
2023-07-23T23:22:30.017Z,24.90
2023-07-23T23:24:58.251Z,24.80
2023-07-23T23:27:33.281Z,24.80
2023-07-23T23:30:03.435Z,24.80
2023-07-23T23:32:31.776Z,24.80
2023-07-23T23:35:00.045Z,24.70
2023-07-23T23:37:28.159Z,24.70
2023-07-23T23:39:56.304Z,24.60
2023-07-23T23:42:24.454Z,24.60
2023-07-23T23:44:52.783Z,24.60
2023-07-23T23:47:22.313Z,24.60
2023-07-23T23:49:50.785Z,24.60
2023-07-23T23:52:18.905Z,24.50
2023-07-23T23:54:47.146Z,24.50
2023-07-23T23:57:15.478Z,24.50
2023-07-23T23:59:43.820Z,24.50
